Terminal Aerodrome Forecast
Issued by NWS Wichita, KS

Home | Current Version | Previous Version | Text Only | Print | Product List | Glossary Off
Versions: 1 2 3 4 5 6 7 8 9 10 11 12 13 14 15 16 17 18 19 20 21 22 23 24 25 26 27 28 29

000
FTUS43 KICT 271135
TAFICT
TAF
KICT 271135Z 2712/2812 VRB05KT P6SM SCT100 BKN150
     FM271400 09007KT P6SM FEW035
     FM271700 15010KT P6SM VCTS BKN050CB
     FM272100 15010KT P6SM SCT050 BKN250
     FM280700 16007KT P6SM VCTS BKN035CB=

USA.gov is the U.S. government's official web portal to all federal, state and local government web resources and services.